createdAt,value
2023-03-17T00:01:54.065Z,2.50
2023-03-17T00:04:22.889Z,2.55
2023-03-17T00:06:49.757Z,3.30
2023-03-17T00:09:17.883Z,2.70
2023-03-17T00:11:45.729Z,3.35
2023-03-17T00:14:12.986Z,3.00
2023-03-17T00:16:45.217Z,3.03
2023-03-17T00:19:23.593Z,2.70
2023-03-17T00:21:50.734Z,3.60
2023-03-17T00:24:17.660Z,3.08
2023-03-17T00:26:44.559Z,3.60
2023-03-17T00:29:11.369Z,3.08
2023-03-17T00:31:39.604Z,2.33
2023-03-17T00:34:08.145Z,3.22
2023-03-17T00:36:35.777Z,3.50
2023-03-17T00:39:03.326Z,2.88
2023-03-17T00:41:30.273Z,3.13
2023-03-17T00:43:57.429Z,3.10
2023-03-17T00:46:36.025Z,3.08
2023-03-17T00:49:10.559Z,3.50
2023-03-17T00:51:37.509Z,3.70
2023-03-17T00:54:04.498Z,3.25
2023-03-17T00:56:32.026Z,3.22
2023-03-17T00:58:58.848Z,3.60
2023-03-17T01:01:25.686Z,3.58
2023-03-17T01:03:52.828Z,3.70
2023-03-17T01:06:20.233Z,3.47
2023-03-17T01:08:47.459Z,3.33
2023-03-17T01:11:18.706Z,3.70
2023-03-17T01:13:45.880Z,3.83
2023-03-17T01:16:12.968Z,3.85
2023-03-17T01:18:40.634Z,3.85
2023-03-17T01:21:07.962Z,4.10
2023-03-17T01:23:34.883Z,3.55
2023-03-17T01:26:01.757Z,3.72
2023-03-17T01:28:28.983Z,4.05
2023-03-17T01:30:56.795Z,3.90
2023-03-17T01:33:23.884Z,3.53
2023-03-17T01:35:51.292Z,3.42
2023-03-17T01:38:18.793Z,3.50
2023-03-17T01:40:49.739Z,3.17
2023-03-17T01:43:30.760Z,3.58
2023-03-17T01:46:16.571Z,3.53
2023-03-17T01:48:55.429Z,3.72
2023-03-17T01:51:42.982Z,3.30
2023-03-17T01:54:15.272Z,4.32
2023-03-17T01:56:45.275Z,3.73
2023-03-17T01:59:19.204Z,3.70
2023-03-17T02:01:49.697Z,3.75
2023-03-17T02:04:19.463Z,4.25
2023-03-17T02:06:57.578Z,3.70
2023-03-17T02:09:27.111Z,4.47
2023-03-17T02:11:55.631Z,4.43
2023-03-17T02:14:22.844Z,3.20
2023-03-17T02:16:49.880Z,4.20
2023-03-17T02:19:17.024Z,3.67
2023-03-17T02:21:54.049Z,3.55
2023-03-17T02:24:23.651Z,3.45
2023-03-17T02:26:51.706Z,3.83
2023-03-17T02:29:21.186Z,3.80
2023-03-17T02:31:48.179Z,3.67
2023-03-17T02:34:15.834Z,4.45
2023-03-17T02:36:42.903Z,4.00
2023-03-17T02:39:09.907Z,4.07
2023-03-17T02:41:37.476Z,3.55
2023-03-17T02:44:04.521Z,3.10
2023-03-17T02:46:31.682Z,3.88
2023-03-17T02:48:58.865Z,3.60
2023-03-17T02:51:25.689Z,4.63
2023-03-17T02:53:52.568Z,4.22
2023-03-17T02:56:19.399Z,4.28
2023-03-17T02:58:46.478Z,3.83
2023-03-17T03:01:13.357Z,3.90
2023-03-17T03:03:40.324Z,3.72
2023-03-17T03:06:07.525Z,3.63
2023-03-17T03:08:34.462Z,4.38
2023-03-17T03:11:02.583Z,4.15
2023-03-17T03:13:29.597Z,3.88
2023-03-17T03:15:56.531Z,3.72
2023-03-17T03:18:23.590Z,4.43
2023-03-17T03:20:50.806Z,3.72
2023-03-17T03:23:17.711Z,3.72
2023-03-17T03:25:44.609Z,3.97
2023-03-17T03:28:11.460Z,3.40
2023-03-17T03:30:39.050Z,3.33
2023-03-17T03:33:06.637Z,4.50
2023-03-17T03:35:34.514Z,3.95
2023-03-17T03:38:02.173Z,3.83
2023-03-17T03:40:29.340Z,4.28
2023-03-17T03:42:56.349Z,3.83
2023-03-17T03:45:23.585Z,4.80
2023-03-17T03:47:50.616Z,3.55
2023-03-17T03:50:17.741Z,3.30
2023-03-17T03:52:44.672Z,3.88
2023-03-17T03:55:11.589Z,4.18
2023-03-17T03:57:38.771Z,3.35
2023-03-17T04:00:07.868Z,3.83
2023-03-17T04:02:34.847Z,3.60
2023-03-17T04:05:02.006Z,3.90
2023-03-17T04:07:29.532Z,3.95
2023-03-17T04:09:56.913Z,3.45
2023-03-17T04:12:23.798Z,4.38
2023-03-17T04:14:50.586Z,4.10
2023-03-17T04:17:18.013Z,3.63
2023-03-17T04:19:44.790Z,3.72
2023-03-17T04:22:13.555Z,3.60
2023-03-17T04:24:41.005Z,3.90
2023-03-17T04:27:08.064Z,3.25
2023-03-17T04:29:35.074Z,3.78
2023-03-17T04:32:02.692Z,3.65
2023-03-17T04:34:30.007Z,3.90
2023-03-17T04:36:57.526Z,3.65
2023-03-17T04:39:24.530Z,3.65
2023-03-17T04:41:51.443Z,3.88
2023-03-17T04:44:18.229Z,3.83
2023-03-17T04:46:45.082Z,4.53
2023-03-17T04:49:12.410Z,3.85
2023-03-17T04:51:39.244Z,4.75
2023-03-17T04:54:06.948Z,3.90
2023-03-17T04:56:34.202Z,3.88
2023-03-17T04:59:00.981Z,3.88
2023-03-17T05:01:27.792Z,3.60
2023-03-17T05:03:54.728Z,3.80
2023-03-17T05:06:21.804Z,3.15
2023-03-17T05:08:48.803Z,3.38
2023-03-17T05:11:15.986Z,3.60
2023-03-17T05:13:43.062Z,3.13
2023-03-17T05:16:10.465Z,3.75
2023-03-17T05:18:38.117Z,3.50
2023-03-17T05:21:06.393Z,4.10
2023-03-17T05:23:33.771Z,4.07
2023-03-17T05:26:00.889Z,3.78
2023-03-17T05:28:27.863Z,3.20
2023-03-17T05:30:55.478Z,3.42
2023-03-17T05:33:23.082Z,3.65
2023-03-17T05:35:50.279Z,3.33
2023-03-17T05:38:17.357Z,3.33
2023-03-17T05:40:44.660Z,4.32
2023-03-17T05:43:11.631Z,3.45
2023-03-17T05:45:39.220Z,3.25
2023-03-17T05:48:06.495Z,3.63
2023-03-17T05:50:33.558Z,3.20
2023-03-17T05:53:00.988Z,3.75
2023-03-17T05:55:27.882Z,3.88
2023-03-17T05:57:54.725Z,3.85
2023-03-17T06:00:21.941Z,3.15
2023-03-17T06:02:48.991Z,3.80
2023-03-17T06:05:16.375Z,2.95
2023-03-17T06:07:52.901Z,3.63
2023-03-17T06:10:24.663Z,3.35
2023-03-17T06:12:51.697Z,2.95
2023-03-17T06:15:19.206Z,3.30
2023-03-17T06:17:46.258Z,3.13
2023-03-17T06:20:14.216Z,3.20
2023-03-17T06:22:55.217Z,3.75
2023-03-17T06:25:28.063Z,3.15
2023-03-17T06:27:56.313Z,3.30
2023-03-17T06:30:23.162Z,3.33
2023-03-17T06:32:50.355Z,2.92
2023-03-17T06:35:18.120Z,3.03
2023-03-17T06:37:45.125Z,3.42
2023-03-17T06:40:12.708Z,2.85
2023-03-17T06:42:39.624Z,2.90
2023-03-17T06:45:07.118Z,3.58
2023-03-17T06:47:35.399Z,3.03
2023-03-17T06:50:02.309Z,2.70
2023-03-17T06:52:29.162Z,3.20
2023-03-17T06:54:55.984Z,2.42
2023-03-17T06:57:22.876Z,3.03
2023-03-17T06:59:49.721Z,2.88
2023-03-17T07:02:16.713Z,3.00
2023-03-17T07:04:43.649Z,2.63
2023-03-17T07:07:10.910Z,2.97
2023-03-17T07:09:37.852Z,3.00
2023-03-17T07:12:05.110Z,2.63
2023-03-17T07:14:36.690Z,3.17
2023-03-17T07:17:04.951Z,3.15
2023-03-17T07:19:32.953Z,2.63
2023-03-17T07:21:59.787Z,2.30
2023-03-17T07:24:27.055Z,3.17
2023-03-17T07:26:53.985Z,2.72
2023-03-17T07:29:22.714Z,2.58
2023-03-17T07:31:50.049Z,2.60
2023-03-17T07:34:17.836Z,3.28
2023-03-17T07:36:44.761Z,2.67
2023-03-17T07:39:12.162Z,2.72
2023-03-17T07:41:39.316Z,2.20
2023-03-17T07:44:06.339Z,2.17
2023-03-17T07:46:33.282Z,2.90
2023-03-17T07:49:00.146Z,2.88
2023-03-17T07:51:28.108Z,2.45
2023-03-17T07:54:03.867Z,2.42
2023-03-17T07:56:32.521Z,2.80
2023-03-17T07:59:00.139Z,2.50
2023-03-17T08:01:28.507Z,2.67
2023-03-17T08:03:56.573Z,2.80
2023-03-17T08:06:27.279Z,2.92
2023-03-17T08:08:54.820Z,2.58
2023-03-17T08:11:23.404Z,2.60
2023-03-17T08:13:50.275Z,2.75
2023-03-17T08:16:17.318Z,2.55
2023-03-17T08:18:44.439Z,2.08
2023-03-17T08:21:11.362Z,2.50
2023-03-17T08:23:38.193Z,2.10
2023-03-17T08:26:05.581Z,2.20
2023-03-17T08:28:32.982Z,2.60
2023-03-17T08:31:12.637Z,2.63
2023-03-17T08:33:45.411Z,2.08
2023-03-17T08:36:12.873Z,2.60
2023-03-17T08:38:41.511Z,2.40
2023-03-17T08:41:12.278Z,2.50
2023-03-17T08:43:40.104Z,2.80
2023-03-17T08:46:17.091Z,2.92
2023-03-17T08:48:46.755Z,2.92
2023-03-17T08:51:17.737Z,2.85
2023-03-17T08:53:45.783Z,2.70
2023-03-17T08:56:14.112Z,2.60
2023-03-17T08:58:42.684Z,2.78
2023-03-17T09:01:10.863Z,2.90
2023-03-17T09:03:40.808Z,2.88
2023-03-17T09:06:09.562Z,2.80
2023-03-17T09:08:42.334Z,2.30
2023-03-17T09:11:10.707Z,3.45
2023-03-17T09:13:39.113Z,2.38
2023-03-17T09:16:08.889Z,2.47
2023-03-17T09:18:35.941Z,2.83
2023-03-17T09:21:03.715Z,2.90
2023-03-17T09:23:31.183Z,2.30
2023-03-17T09:25:58.405Z,2.28
2023-03-17T09:28:25.600Z,2.40
2023-03-17T09:30:57.202Z,2.40
2023-03-17T09:33:24.073Z,2.50
2023-03-17T09:35:52.735Z,2.25
2023-03-17T09:38:19.793Z,2.80
2023-03-17T09:41:20.576Z,1.95
2023-03-17T09:44:25.129Z,2.67
2023-03-17T09:47:04.238Z,2.53
2023-03-17T09:49:51.677Z,2.58
2023-03-17T09:52:30.583Z,2.65
2023-03-17T09:54:58.458Z,2.75
2023-03-17T09:57:40.003Z,2.90
2023-03-17T10:00:20.785Z,2.95
2023-03-17T10:02:47.611Z,2.65
2023-03-17T10:05:21.980Z,2.80
2023-03-17T10:08:27.008Z,2.92
2023-03-17T10:11:25.001Z,2.50
2023-03-17T10:13:55.030Z,2.70
2023-03-17T10:16:46.379Z,2.70
2023-03-17T10:19:38.266Z,2.90
2023-03-17T10:22:37.943Z,2.60
2023-03-17T10:25:14.062Z,2.90
2023-03-17T10:27:42.613Z,3.35
2023-03-17T10:30:20.569Z,2.85
2023-03-17T10:32:48.307Z,2.60
2023-03-17T10:35:16.596Z,3.10
2023-03-17T10:37:46.066Z,3.30
2023-03-17T10:40:28.663Z,3.10
2023-03-17T10:43:03.832Z,2.97
2023-03-17T10:45:33.298Z,3.15
2023-03-17T10:48:02.639Z,3.50
2023-03-17T10:50:32.686Z,3.40
2023-03-17T10:53:10.824Z,3.40
2023-03-17T10:55:44.768Z,2.90
2023-03-17T10:58:37.239Z,3.20
2023-03-17T11:01:29.165Z,3.28
2023-03-17T11:03:57.489Z,3.65
2023-03-17T11:06:38.506Z,3.60
2023-03-17T11:09:09.642Z,3.67
2023-03-17T11:11:44.945Z,3.35
2023-03-17T11:14:14.536Z,3.47
2023-03-17T11:17:13.534Z,3.47
2023-03-17T11:20:24.605Z,3.58
2023-03-17T11:23:04.860Z,3.38
2023-03-17T11:25:36.163Z,3.60
2023-03-17T11:28:09.682Z,3.33
2023-03-17T11:31:18.107Z,3.70
2023-03-17T11:34:05.599Z,4.20
2023-03-17T11:36:57.822Z,3.05
2023-03-17T11:39:56.374Z,3.05
2023-03-17T11:42:44.349Z,2.95
2023-03-17T11:45:27.402Z,2.80
2023-03-17T11:48:27.706Z,3.70
2023-03-17T11:51:16.314Z,3.38
2023-03-17T11:53:52.014Z,2.80
2023-03-17T11:56:21.112Z,3.05
2023-03-17T11:58:56.853Z,3.05
2023-03-17T12:01:32.413Z,3.53
2023-03-17T12:04:16.465Z,3.33
2023-03-17T12:06:48.547Z,3.63
2023-03-17T12:09:45.704Z,3.47
2023-03-17T12:12:16.263Z,3.30
2023-03-17T12:14:48.765Z,3.08
2023-03-17T12:17:16.208Z,3.95
2023-03-17T12:19:55.977Z,3.38
2023-03-17T12:22:34.416Z,3.45
2023-03-17T12:25:21.434Z,3.20
2023-03-17T12:28:11.094Z,3.50
2023-03-17T12:30:54.342Z,3.55
2023-03-17T12:33:58.897Z,4.10
2023-03-17T12:36:27.337Z,3.60
2023-03-17T12:39:05.527Z,3.80
2023-03-17T12:41:53.862Z,4.15
2023-03-17T12:44:39.439Z,4.18
2023-03-17T12:47:30.621Z,4.30
2023-03-17T12:50:12.706Z,4.07
2023-03-17T12:53:03.638Z,3.70
2023-03-17T12:55:33.829Z,4.07
2023-03-17T12:58:04.616Z,4.20
2023-03-17T13:00:33.940Z,3.65
2023-03-17T13:03:21.211Z,4.05
2023-03-17T13:05:52.763Z,4.47
2023-03-17T13:08:28.481Z,4.00
2023-03-17T13:12:12.676Z,3.92
2023-03-17T13:14:43.579Z,4.00
2023-03-17T13:17:31.701Z,3.97
2023-03-17T13:20:07.782Z,3.88
2023-03-17T13:22:40.994Z,3.70
2023-03-17T13:25:33.545Z,3.83
2023-03-17T13:28:12.887Z,4.10
2023-03-17T13:30:40.069Z,3.55
2023-03-17T13:33:09.978Z,3.67
2023-03-17T13:35:43.044Z,3.58
2023-03-17T13:38:34.873Z,3.90
2023-03-17T13:41:17.483Z,3.60
2023-03-17T13:43:52.412Z,4.45
2023-03-17T13:46:25.239Z,4.88
2023-03-17T13:51:27.308Z,4.25
2023-03-17T13:54:07.712Z,3.78
2023-03-17T13:56:36.328Z,4.30
2023-03-17T13:59:03.883Z,3.85
2023-03-17T14:01:38.997Z,4.07
2023-03-17T14:04:12.415Z,4.18
2023-03-17T14:06:40.688Z,4.43
2023-03-17T14:09:16.495Z,4.03
2023-03-17T14:11:47.299Z,3.85
2023-03-17T14:14:36.459Z,4.25
2023-03-17T14:17:28.122Z,4.13
2023-03-17T14:20:13.409Z,3.65
2023-03-17T14:22:45.418Z,3.40
2023-03-17T14:25:18.992Z,4.72
2023-03-17T14:27:49.142Z,3.95
2023-03-17T14:30:25.642Z,4.43
2023-03-17T14:32:58.827Z,4.82
2023-03-17T14:35:30.961Z,4.47
2023-03-17T14:37:58.467Z,3.53
2023-03-17T14:40:28.376Z,3.95
2023-03-17T14:42:56.291Z,3.45
2023-03-17T14:45:43.146Z,4.25
2023-03-17T14:48:14.798Z,4.22
2023-03-17T14:50:51.480Z,4.45
2023-03-17T14:53:19.438Z,3.65
2023-03-17T14:55:47.114Z,4.30
2023-03-17T14:58:26.688Z,4.35
2023-03-17T15:01:05.668Z,4.40
2023-03-17T15:03:38.323Z,4.35
2023-03-17T15:06:30.442Z,4.45
2023-03-17T15:09:16.967Z,4.40
2023-03-17T15:11:45.183Z,4.40
2023-03-17T15:14:33.721Z,4.10
2023-03-17T15:17:04.409Z,3.90
2023-03-17T15:19:36.300Z,4.30
2023-03-17T15:22:21.526Z,4.60
2023-03-17T15:25:22.197Z,4.82
2023-03-17T15:27:49.196Z,4.93
2023-03-17T15:30:17.262Z,4.70
2023-03-17T15:32:44.744Z,4.00
2023-03-17T15:35:13.154Z,4.07
2023-03-17T15:37:40.521Z,4.35
2023-03-17T15:40:09.395Z,5.10
2023-03-17T15:42:40.051Z,4.60
2023-03-17T15:45:07.873Z,4.45
2023-03-17T15:47:39.811Z,4.97
2023-03-17T15:50:29.497Z,4.75
2023-03-17T15:52:57.306Z,4.63
2023-03-17T15:55:30.688Z,5.40
2023-03-17T15:57:58.677Z,4.88
2023-03-17T16:00:29.503Z,4.75
2023-03-17T16:03:04.623Z,4.60
2023-03-17T16:05:33.594Z,5.20
2023-03-17T16:08:01.511Z,4.65
2023-03-17T16:10:32.928Z,4.72
2023-03-17T16:13:00.329Z,4.97
2023-03-17T16:15:31.370Z,4.70
2023-03-17T16:18:04.566Z,6.03
2023-03-17T16:20:42.818Z,5.15
2023-03-17T16:23:19.206Z,5.32
2023-03-17T16:25:46.400Z,5.70
2023-03-17T16:28:17.851Z,5.43
2023-03-17T16:30:46.640Z,5.43
2023-03-17T16:33:25.946Z,6.50
2023-03-17T16:35:57.448Z,5.93
2023-03-17T16:38:27.247Z,5.00
2023-03-17T16:40:58.346Z,4.97
2023-03-17T16:43:35.612Z,4.78
2023-03-17T16:46:03.594Z,6.20
2023-03-17T16:48:31.182Z,5.47
2023-03-17T16:50:58.340Z,4.57
2023-03-17T16:53:25.686Z,5.32
2023-03-17T16:55:54.257Z,5.28
2023-03-17T16:58:41.760Z,5.60
2023-03-17T17:01:24.937Z,5.50
2023-03-17T17:06:20.867Z,5.10
2023-03-17T17:08:48.626Z,5.63
2023-03-17T17:11:16.924Z,5.40
2023-03-17T17:13:46.135Z,5.57
2023-03-17T17:16:31.508Z,5.55
2023-03-17T17:18:59.334Z,5.97
2023-03-17T17:21:27.285Z,6.28
2023-03-17T17:24:29.291Z,5.60
2023-03-17T17:26:56.133Z,6.18
2023-03-17T17:29:23.042Z,6.25
2023-03-17T17:31:49.900Z,6.38
2023-03-17T17:34:16.860Z,6.70
2023-03-17T17:36:47.079Z,6.35
2023-03-17T17:39:14.365Z,6.57
2023-03-17T17:41:43.873Z,6.53
2023-03-17T17:44:31.003Z,6.10
2023-03-17T17:46:58.388Z,6.18
2023-03-17T17:49:25.336Z,5.43
2023-03-17T17:51:52.285Z,5.80
2023-03-17T17:54:19.163Z,6.40
2023-03-17T17:56:47.123Z,5.70
2023-03-17T17:59:15.024Z,6.47
2023-03-17T18:01:42.097Z,5.60
2023-03-17T18:04:09.823Z,6.65
2023-03-17T18:06:36.792Z,5.82
2023-03-17T18:09:05.311Z,6.30
2023-03-17T18:11:32.466Z,5.95
2023-03-17T18:13:59.760Z,6.43
2023-03-17T18:16:26.710Z,5.97
2023-03-17T18:18:53.583Z,5.75
2023-03-17T18:21:20.611Z,6.00
2023-03-17T18:23:48.660Z,5.80
2023-03-17T18:26:17.758Z,7.38
2023-03-17T18:28:44.929Z,6.03
2023-03-17T18:31:40.843Z,6.13
2023-03-17T18:34:21.812Z,5.75
2023-03-17T18:36:49.370Z,5.78
2023-03-17T18:39:16.861Z,6.15
2023-03-17T18:41:44.640Z,6.70
2023-03-17T18:44:11.898Z,6.53
2023-03-17T18:46:38.897Z,7.10
2023-03-17T18:49:07.003Z,6.03
2023-03-17T18:51:34.304Z,6.78
2023-03-17T18:54:01.225Z,7.00
2023-03-17T18:56:29.650Z,7.32
2023-03-17T18:58:57.932Z,7.55
2023-03-17T19:01:25.836Z,7.05
2023-03-17T19:03:53.054Z,8.10
2023-03-17T19:06:22.808Z,7.63
2023-03-17T19:08:49.934Z,11.02
2023-03-17T19:11:20.340Z,13.48
2023-03-17T19:13:47.423Z,12.40
2023-03-17T19:16:15.169Z,13.27
2023-03-17T19:18:42.635Z,12.55
2023-03-17T19:21:10.425Z,12.05
2023-03-17T19:23:38.288Z,11.85
2023-03-17T19:26:06.110Z,10.90
2023-03-17T19:28:33.813Z,10.63
2023-03-17T19:31:01.216Z,13.00
2023-03-17T19:33:28.979Z,12.20
2023-03-17T19:35:58.623Z,12.43
2023-03-17T19:38:29.872Z,12.95
2023-03-17T19:40:56.959Z,13.38
2023-03-17T19:43:39.398Z,14.27
2023-03-17T19:48:36.516Z,15.73
2023-03-17T19:51:03.593Z,15.32
2023-03-17T19:53:30.495Z,13.32
2023-03-17T19:55:58.092Z,12.63
2023-03-17T19:58:25.321Z,13.30
2023-03-17T20:00:52.933Z,13.63
2023-03-17T20:03:19.793Z,12.25
2023-03-17T20:05:46.852Z,11.52
2023-03-17T20:08:14.739Z,11.10
2023-03-17T20:10:41.958Z,10.13
2023-03-17T20:13:09.034Z,10.23
2023-03-17T20:15:36.775Z,10.25
2023-03-17T20:18:03.924Z,9.82
2023-03-17T20:20:32.335Z,10.55
2023-03-17T20:22:59.455Z,11.25
2023-03-17T20:25:27.113Z,11.80
2023-03-17T20:27:53.920Z,15.85
2023-03-17T20:30:20.942Z,12.57
2023-03-17T20:32:48.299Z,11.15
2023-03-17T20:35:15.499Z,11.30
2023-03-17T20:37:42.671Z,11.15
2023-03-17T20:40:10.884Z,9.82
2023-03-17T20:42:37.906Z,11.27
2023-03-17T20:45:05.593Z,10.27
2023-03-17T20:47:32.470Z,10.70
2023-03-17T20:50:00.175Z,10.93
2023-03-17T20:52:30.055Z,11.63
2023-03-17T20:54:59.474Z,11.57
2023-03-17T20:57:26.564Z,10.85
2023-03-17T20:59:53.434Z,10.73
2023-03-17T21:02:20.774Z,11.07
2023-03-17T21:04:48.952Z,10.82
2023-03-17T21:07:17.812Z,10.50
2023-03-17T21:09:46.727Z,10.35
2023-03-17T21:12:44.893Z,9.20
2023-03-17T21:15:12.974Z,9.55
2023-03-17T21:17:40.415Z,8.07
2023-03-17T21:20:09.569Z,9.13
2023-03-17T21:22:36.963Z,7.22
2023-03-17T21:25:05.101Z,7.43
2023-03-17T21:27:32.184Z,7.65
2023-03-17T21:29:59.024Z,7.60
2023-03-17T21:32:25.885Z,6.60
2023-03-17T21:34:54.399Z,6.93
2023-03-17T21:37:21.538Z,6.88
2023-03-17T21:39:48.536Z,10.50
2023-03-17T21:42:15.453Z,10.63
2023-03-17T21:44:42.401Z,8.68
2023-03-17T21:47:09.276Z,12.30
2023-03-17T21:49:36.116Z,10.77
2023-03-17T21:52:04.130Z,5.95
2023-03-17T21:54:31.575Z,5.95
2023-03-17T21:56:58.546Z,6.00
2023-03-17T21:59:25.496Z,5.88
2023-03-17T22:01:53.426Z,5.60
2023-03-17T22:04:20.276Z,5.60
2023-03-17T22:06:47.278Z,5.50
2023-03-17T22:09:15.647Z,5.30
2023-03-17T22:11:43.484Z,5.30
2023-03-17T22:14:13.321Z,5.20
2023-03-17T22:16:42.583Z,4.28
2023-03-17T22:20:09.078Z,4.75
2023-03-17T22:22:36.070Z,4.47
2023-03-17T22:25:23.349Z,3.92
2023-03-17T22:27:50.237Z,4.35
2023-03-17T22:30:19.570Z,3.42
2023-03-17T22:32:46.887Z,3.42
2023-03-17T22:35:19.405Z,3.75
2023-03-17T22:37:53.742Z,3.38
2023-03-17T22:40:20.603Z,3.03
2023-03-17T22:43:40.093Z,3.53
2023-03-17T22:46:07.459Z,2.90
2023-03-17T22:48:36.156Z,3.22
2023-03-17T22:51:05.774Z,3.53
2023-03-17T22:53:33.622Z,3.40
2023-03-17T22:56:00.903Z,2.95
2023-03-17T22:58:28.607Z,2.35
2023-03-17T23:00:56.277Z,2.70
2023-03-17T23:03:25.528Z,3.10
2023-03-17T23:05:55.123Z,3.45
2023-03-17T23:08:22.020Z,2.90
2023-03-17T23:10:53.560Z,2.92
2023-03-17T23:13:22.413Z,3.20
2023-03-17T23:15:49.529Z,2.75
2023-03-17T23:18:17.308Z,2.50
2023-03-17T23:20:44.373Z,2.63
2023-03-17T23:23:12.198Z,3.05
2023-03-17T23:25:39.451Z,3.15
2023-03-17T23:28:07.659Z,2.85
2023-03-17T23:30:35.796Z,2.90
2023-03-17T23:33:04.874Z,3.22
2023-03-17T23:35:33.349Z,3.10
2023-03-17T23:38:00.522Z,2.88
2023-03-17T23:40:27.331Z,2.83
2023-03-17T23:42:55.178Z,2.78
2023-03-17T23:45:25.045Z,3.53
2023-03-17T23:47:52.813Z,2.90
2023-03-17T23:50:21.159Z,3.25
2023-03-17T23:52:49.355Z,2.65
2023-03-17T23:55:17.028Z,3.13
2023-03-17T23:57:44.797Z,3.03
